sensor_id;sensor_type;location;lat;lon;timestamp;pressure;altitude;pressure_sealevel;temperature;humidity
69796;BME280;57073;45.650;9.612;2022-11-15T00:04:57;99645.28;;;8.83;70.62
69796;BME280;57073;45.650;9.612;2022-11-15T00:14:57;99632.59;;;8.63;69.94
69796;BME280;57073;45.650;9.612;2022-11-15T00:24:57;99645.59;;;8.67;69.64
69796;BME280;57073;45.650;9.612;2022-11-15T00:34:58;99617.31;;;8.57;70.29
69796;BME280;57073;45.650;9.612;2022-11-15T00:44:58;99604.50;;;8.46;70.19
69796;BME280;57073;45.650;9.612;2022-11-15T00:54:58;99591.34;;;8.51;70.18
69796;BME280;57073;45.650;9.612;2022-11-15T01:04:59;99589.56;;;8.58;70.14
69796;BME280;57073;45.650;9.612;2022-11-15T01:14:59;99585.81;;;8.53;69.93
69796;BME280;57073;45.650;9.612;2022-11-15T01:25:00;99580.03;;;8.49;69.80
69796;BME280;57073;45.650;9.612;2022-11-15T01:35:00;99561.41;;;8.41;69.73
69796;BME280;57073;45.650;9.612;2022-11-15T01:45:00;99561.53;;;8.26;69.77
69796;BME280;57073;45.650;9.612;2022-11-15T01:55:08;99553.91;;;8.23;69.45
69796;BME280;57073;45.650;9.612;2022-11-15T02:05:10;99537.66;;;8.24;69.69
69796;BME280;57073;45.650;9.612;2022-11-15T02:15:11;99538.28;;;8.20;69.43
69796;BME280;57073;45.650;9.612;2022-11-15T02:35:44;99542.56;;;8.14;70.61
69796;BME280;57073;45.650;9.612;2022-11-15T02:45:53;99518.69;;;8.13;69.77
69796;BME280;57073;45.650;9.612;2022-11-15T02:55:56;99499.09;;;8.05;69.89
69796;BME280;57073;45.650;9.612;2022-11-15T03:16:15;99488.47;;;8.12;70.42
69796;BME280;57073;45.650;9.612;2022-11-15T03:26:21;99495.00;;;8.10;70.69
69796;BME280;57073;45.650;9.612;2022-11-15T03:36:24;99493.69;;;7.99;70.74
69796;BME280;57073;45.650;9.612;2022-11-15T03:46:44;99468.16;;;7.90;70.95
69796;BME280;57073;45.650;9.612;2022-11-15T03:56:46;99476.91;;;8.05;70.42
69796;BME280;57073;45.650;9.612;2022-11-15T04:06:47;99473.63;;;8.10;70.68
69796;BME280;57073;45.650;9.612;2022-11-15T04:16:47;99446.13;;;8.16;69.25
69796;BME280;57073;45.650;9.612;2022-11-15T04:26:48;99439.78;;;8.23;69.29
69796;BME280;57073;45.650;9.612;2022-11-15T04:36:48;99433.63;;;8.30;68.96
69796;BME280;57073;45.650;9.612;2022-11-15T04:47:07;99423.06;;;8.15;69.29
69796;BME280;57073;45.650;9.612;2022-11-15T04:57:07;99414.25;;;8.14;69.98
69796;BME280;57073;45.650;9.612;2022-11-15T05:07:07;99406.22;;;8.14;69.56
69796;BME280;57073;45.650;9.612;2022-11-15T05:17:08;99415.91;;;8.22;69.83
69796;BME280;57073;45.650;9.612;2022-11-15T05:27:08;99409.59;;;8.36;70.83
69796;BME280;57073;45.650;9.612;2022-11-15T05:37:09;99389.44;;;8.40;68.96
69796;BME280;57073;45.650;9.612;2022-11-15T05:47:13;99380.06;;;8.51;68.82
69796;BME280;57073;45.650;9.612;2022-11-15T05:57:15;99383.34;;;8.53;68.57
69796;BME280;57073;45.650;9.612;2022-11-15T06:07:16;99388.75;;;8.73;69.06
69796;BME280;57073;45.650;9.612;2022-11-15T06:17:16;99395.56;;;8.89;69.43
69796;BME280;57073;45.650;9.612;2022-11-15T06:27:17;99411.06;;;9.14;69.25
69796;BME280;57073;45.650;9.612;2022-11-15T06:37:17;99427.72;;;9.23;69.11
69796;BME280;57073;45.650;9.612;2022-11-15T06:47:17;99419.69;;;9.23;69.14
69796;BME280;57073;45.650;9.612;2022-11-15T06:57:18;99425.88;;;9.36;68.79
69796;BME280;57073;45.650;9.612;2022-11-15T07:07:18;99431.66;;;9.40;69.65
69796;BME280;57073;45.650;9.612;2022-11-15T07:17:18;99438.66;;;9.41;70.86
69796;BME280;57073;45.650;9.612;2022-11-15T07:27:19;99440.94;;;9.51;70.63
69796;BME280;57073;45.650;9.612;2022-11-15T07:37:19;99443.19;;;9.54;70.31
69796;BME280;57073;45.650;9.612;2022-11-15T07:47:20;99444.00;;;9.48;70.93
69796;BME280;57073;45.650;9.612;2022-11-15T07:57:20;99448.78;;;9.59;71.24
69796;BME280;57073;45.650;9.612;2022-11-15T08:07:21;99457.22;;;9.63;71.49
69796;BME280;57073;45.650;9.612;2022-11-15T08:17:22;99448.94;;;9.64;71.62
69796;BME280;57073;45.650;9.612;2022-11-15T08:27:23;99438.84;;;9.73;72.61
69796;BME280;57073;45.650;9.612;2022-11-15T08:37:23;99420.28;;;9.78;73.91
69796;BME280;57073;45.650;9.612;2022-11-15T08:47:23;99418.41;;;9.78;74.23
69796;BME280;57073;45.650;9.612;2022-11-15T08:57:24;99400.88;;;9.89;73.16
69796;BME280;57073;45.650;9.612;2022-11-15T09:07:24;99401.88;;;9.95;74.03
69796;BME280;57073;45.650;9.612;2022-11-15T09:17:25;99395.47;;;10.09;74.08
69796;BME280;57073;45.650;9.612;2022-11-15T09:27:29;99403.56;;;9.89;74.77
69796;BME280;57073;45.650;9.612;2022-11-15T09:37:31;99399.16;;;10.15;73.95
69796;BME280;57073;45.650;9.612;2022-11-15T09:57:54;99401.94;;;10.47;74.01
69796;BME280;57073;45.650;9.612;2022-11-15T10:08:15;99407.09;;;10.48;72.22
69796;BME280;57073;45.650;9.612;2022-11-15T10:28:29;99375.16;;;10.79;73.86
69796;BME280;57073;45.650;9.612;2022-11-15T10:38:29;99357.94;;;10.54;76.15
69796;BME280;57073;45.650;9.612;2022-11-15T10:48:30;99358.03;;;10.41;76.35
69796;BME280;57073;45.650;9.612;2022-11-15T11:08:37;99321.31;;;10.35;76.28
69796;BME280;57073;45.650;9.612;2022-11-15T11:28:48;99305.44;;;10.65;76.73
69796;BME280;57073;45.650;9.612;2022-11-15T12:10:24;99257.47;;;10.50;75.20
69796;BME280;57073;45.650;9.612;2022-11-15T12:20:31;99248.53;;;10.57;75.25
69796;BME280;57073;45.650;9.612;2022-11-15T12:30:55;99220.50;;;10.52;74.31
69796;BME280;57073;45.650;9.612;2022-11-15T12:41:15;99207.06;;;10.52;74.02
69796;BME280;57073;45.650;9.612;2022-11-15T12:51:16;99193.84;;;10.58;76.44
69796;BME280;57073;45.650;9.612;2022-11-15T13:11:48;99165.06;;;10.65;76.00
69796;BME280;57073;45.650;9.612;2022-11-15T13:21:49;99143.97;;;10.50;75.58
69796;BME280;57073;45.650;9.612;2022-11-15T13:32:15;99127.41;;;10.53;76.47
69796;BME280;57073;45.650;9.612;2022-11-15T13:42:20;99124.06;;;10.58;76.89
69796;BME280;57073;45.650;9.612;2022-11-15T13:52:21;99119.66;;;10.63;77.73
69796;BME280;57073;45.650;9.612;2022-11-15T14:02:40;99109.59;;;10.59;77.54
69796;BME280;57073;45.650;9.612;2022-11-15T14:12:50;99092.91;;;10.57;75.85
69796;BME280;57073;45.650;9.612;2022-11-15T14:22:55;99087.63;;;10.50;76.32
69796;BME280;57073;45.650;9.612;2022-11-15T14:32:56;99078.88;;;10.54;77.56
69796;BME280;57073;45.650;9.612;2022-11-15T14:42:56;99083.81;;;10.58;77.96
69796;BME280;57073;45.650;9.612;2022-11-15T14:52:57;99068.25;;;10.48;77.63
69796;BME280;57073;45.650;9.612;2022-11-15T15:02:58;99069.31;;;10.40;79.01
69796;BME280;57073;45.650;9.612;2022-11-15T15:12:58;99060.63;;;10.45;78.47
69796;BME280;57073;45.650;9.612;2022-11-15T15:22:59;99058.00;;;10.38;77.71
69796;BME280;57073;45.650;9.612;2022-11-15T15:32:59;99050.00;;;10.31;78.03
69796;BME280;57073;45.650;9.612;2022-11-15T15:43:00;99037.44;;;10.32;78.53
69796;BME280;57073;45.650;9.612;2022-11-15T15:53:02;99026.31;;;10.28;79.28
69796;BME280;57073;45.650;9.612;2022-11-15T16:03:03;99020.66;;;10.11;79.53
69796;BME280;57073;45.650;9.612;2022-11-15T16:13:03;99011.97;;;10.16;80.71
69796;BME280;57073;45.650;9.612;2022-11-15T16:23:06;98996.84;;;10.22;80.75
69796;BME280;57073;45.650;9.612;2022-11-15T16:33:06;98995.56;;;10.06;81.20
69796;BME280;57073;45.650;9.612;2022-11-15T16:43:07;99003.38;;;10.07;81.72
69796;BME280;57073;45.650;9.612;2022-11-15T16:53:07;98991.94;;;10.18;81.46
69796;BME280;57073;45.650;9.612;2022-11-15T17:03:07;98990.16;;;10.12;82.10
69796;BME280;57073;45.650;9.612;2022-11-15T17:13:12;98995.72;;;10.11;82.10
69796;BME280;57073;45.650;9.612;2022-11-15T17:23:13;98986.75;;;10.42;81.74
69796;BME280;57073;45.650;9.612;2022-11-15T17:33:14;98986.22;;;10.70;80.01
69796;BME280;57073;45.650;9.612;2022-11-15T17:43:14;98978.03;;;10.65;78.90
69796;BME280;57073;45.650;9.612;2022-11-15T17:53:15;98984.22;;;10.66;78.40
69796;BME280;57073;45.650;9.612;2022-11-15T18:03:16;98991.66;;;10.64;78.91
69796;BME280;57073;45.650;9.612;2022-11-15T18:13:16;98975.19;;;10.60;79.52
69796;BME280;57073;45.650;9.612;2022-11-15T18:23:17;98975.66;;;10.57;79.61
69796;BME280;57073;45.650;9.612;2022-11-15T18:33:17;98962.69;;;10.54;80.09
69796;BME280;57073;45.650;9.612;2022-11-15T18:43:18;98949.94;;;10.49;80.05
69796;BME280;57073;45.650;9.612;2022-11-15T18:53:18;98943.63;;;10.44;80.46
69796;BME280;57073;45.650;9.612;2022-11-15T19:03:19;98932.97;;;10.37;80.75
69796;BME280;57073;45.650;9.612;2022-11-15T19:13:19;98919.56;;;10.37;80.34
69796;BME280;57073;45.650;9.612;2022-11-15T19:23:20;98906.63;;;10.27;80.93
69796;BME280;57073;45.650;9.612;2022-11-15T19:33:20;98903.53;;;10.49;81.26
69796;BME280;57073;45.650;9.612;2022-11-15T19:43:20;98907.00;;;10.68;80.44
69796;BME280;57073;45.650;9.612;2022-11-15T19:53:22;98904.44;;;10.73;79.55
69796;BME280;57073;45.650;9.612;2022-11-15T20:03:22;98903.25;;;10.69;79.29
69796;BME280;57073;45.650;9.612;2022-11-15T20:13:23;98895.28;;;10.62;80.24
69796;BME280;57073;45.650;9.612;2022-11-15T20:23:24;98884.44;;;10.57;79.56
69796;BME280;57073;45.650;9.612;2022-11-15T20:33:26;98866.09;;;10.54;79.83
69796;BME280;57073;45.650;9.612;2022-11-15T20:43:26;98837.16;;;10.44;80.35
69796;BME280;57073;45.650;9.612;2022-11-15T20:53:26;98851.16;;;10.46;80.84
69796;BME280;57073;45.650;9.612;2022-11-15T21:03:27;98847.25;;;10.42;81.68
69796;BME280;57073;45.650;9.612;2022-11-15T21:13:27;98828.75;;;10.52;81.57
69796;BME280;57073;45.650;9.612;2022-11-15T21:23:28;98814.63;;;10.45;80.89
69796;BME280;57073;45.650;9.612;2022-11-15T21:33:28;98827.59;;;10.48;81.26
69796;BME280;57073;45.650;9.612;2022-11-15T21:43:28;98797.50;;;10.46;81.56
69796;BME280;57073;45.650;9.612;2022-11-15T21:53:29;98775.31;;;10.39;80.96
69796;BME280;57073;45.650;9.612;2022-11-15T22:03:30;98762.25;;;10.43;81.17
69796;BME280;57073;45.650;9.612;2022-11-15T22:13:31;98759.66;;;10.36;82.27
69796;BME280;57073;45.650;9.612;2022-11-15T22:23:32;98739.88;;;10.37;81.63
69796;BME280;57073;45.650;9.612;2022-11-15T22:33:33;98730.94;;;10.25;82.51
69796;BME280;57073;45.650;9.612;2022-11-15T22:43:34;98725.84;;;10.35;81.40
69796;BME280;57073;45.650;9.612;2022-11-15T22:53:34;98691.97;;;10.22;81.75
69796;BME280;57073;45.650;9.612;2022-11-15T23:03:34;98699.34;;;10.27;81.88
69796;BME280;57073;45.650;9.612;2022-11-15T23:13:35;98692.91;;;10.28;81.63
69796;BME280;57073;45.650;9.612;2022-11-15T23:23:35;98662.38;;;10.29;81.84
69796;BME280;57073;45.650;9.612;2022-11-15T23:33:36;98656.44;;;10.27;82.31
69796;BME280;57073;45.650;9.612;2022-11-15T23:43:56;98628.84;;;10.08;82.46
69796;BME280;57073;45.650;9.612;2022-11-15T23:53:56;98625.63;;;10.17;82.87
